Time;durP1;ratioP1;P1;durP2;ratioP2;P2;SDS_P1;SDS_P2;PMS_P1;PMS_P2;Temp;Humidity;BMP_temperature;BMP_pressure;BME280_temperature;BME280_humidity;BME280_pressure;Samples;Min_cycle;Max_cycle;Signal;HPM_P1;HPM_P2
2021/07/05 00:00:00;;;;;;;;;4.00;4.00;;;;;-144.77;100.00;61770.03;4999200;28;8746;-84
2021/07/05 00:02:25;;;;;;;;;5.25;3.50;;;;;-144.77;100.00;61770.03;4996816;28;9587;-84
2021/07/05 00:04:51;;;;;;;;;3.25;3.25;;;;;-144.77;100.00;61770.03;4997981;28;8809;-84
2021/07/05 00:07:17;;;;;;;;;4.50;2.50;;;;;-144.77;100.00;61770.03;4996798;28;8810;-84
2021/07/05 00:09:43;;;;;;;;;3.75;2.75;;;;;-144.77;100.00;61770.03;4996896;28;8798;-84
2021/07/05 00:12:09;;;;;;;;;4.25;4.00;;;;;-144.77;100.00;61770.03;4994685;28;8782;-84
2021/07/05 00:14:35;;;;;;;;;4.00;4.00;;;;;-144.77;100.00;61770.03;4996276;28;9730;-83
2021/07/05 00:17:02;;;;;;;;;2.75;2.75;;;;;-144.77;100.00;61770.03;4996773;28;8797;-84
2021/07/05 00:19:28;;;;;;;;;4.50;3.00;;;;;-144.77;100.00;61770.03;5005516;28;8792;-85
2021/07/05 00:21:53;;;;;;;;;5.00;3.75;;;;;-144.77;100.00;61770.03;5002115;28;8805;-84
2021/07/05 00:24:20;;;;;;;;;4.50;3.00;;;;;-144.77;100.00;61770.03;4996666;28;8841;-84
2021/07/05 00:26:45;;;;;;;;;4.25;3.00;;;;;-144.77;100.00;61770.03;4983402;28;9715;-84
2021/07/05 00:29:11;;;;;;;;;3.75;3.50;;;;;-144.77;100.00;61770.03;4997452;28;8849;-83
2021/07/05 00:31:37;;;;;;;;;6.25;4.50;;;;;-144.77;100.00;61770.03;4984763;28;8919;-84
2021/07/05 00:34:03;;;;;;;;;6.25;3.00;;;;;-144.77;100.00;61770.03;4981030;28;8825;-84
2021/07/05 00:36:29;;;;;;;;;6.50;4.75;;;;;-144.77;100.00;61770.03;5005072;28;8858;-84
2021/07/05 00:38:55;;;;;;;;;6.00;3.00;;;;;-144.77;100.00;61770.03;4997102;28;8818;-84
2021/07/05 00:41:20;;;;;;;;;6.50;4.25;;;;;-144.77;100.00;61770.03;4996196;28;8814;-84
2021/07/05 00:43:46;;;;;;;;;4.25;3.25;;;;;-144.77;100.00;61770.03;4996258;28;8817;-83
2021/07/05 00:46:11;;;;;;;;;4.75;4.00;;;;;-144.77;100.00;61770.03;4996571;28;8932;-84
2021/07/05 00:48:37;;;;;;;;;3.75;3.00;;;;;-144.77;100.00;61770.03;4997236;28;8824;-83
2021/07/05 00:51:03;;;;;;;;;5.75;4.50;;;;;-144.77;100.00;61770.03;4996778;28;8935;-84
2021/07/05 00:53:29;;;;;;;;;5.75;4.25;;;;;-144.77;100.00;61770.03;4997879;28;8809;-83
2021/07/05 00:55:54;;;;;;;;;5.00;3.00;;;;;-144.77;100.00;61770.03;5000232;28;8820;-83
2021/07/05 00:58:20;;;;;;;;;3.00;3.00;;;;;-144.77;100.00;61770.03;4996618;28;8850;-83
2021/07/05 01:00:46;;;;;;;;;3.75;2.25;;;;;-144.77;100.00;61770.03;4996391;28;8909;-84
2021/07/05 01:03:12;;;;;;;;;4.50;3.50;;;;;-144.77;100.00;61770.03;4998671;28;8847;-84
2021/07/05 01:05:37;;;;;;;;;3.00;3.00;;;;;-144.77;100.00;61770.03;4996821;28;8806;-84
2021/07/05 01:08:04;;;;;;;;;3.00;3.00;;;;;-144.77;100.00;61770.03;4995987;28;8865;-84
2021/07/05 01:10:30;;;;;;;;;3.50;3.00;;;;;-144.77;100.00;61770.03;4996018;28;8806;-84
2021/07/05 01:12:57;;;;;;;;;3.00;3.00;;;;;-144.77;100.00;61770.03;4982879;28;8770;-84
2021/07/05 01:15:26;;;;;;;;;5.75;3.75;;;;;-144.77;100.00;61770.03;4983627;28;8800;-84
2021/07/05 01:17:54;;;;;;;;;3.00;3.00;;;;;-144.77;100.00;61770.03;4996178;28;8806;-84
2021/07/05 01:20:24;;;;;;;;;4.00;3.75;;;;;-144.77;100.00;61770.03;4977948;28;8844;-84
2021/07/05 01:22:50;;;;;;;;;2.75;2.00;;;;;-144.77;100.00;61770.03;4998115;28;8830;-84
2021/07/05 01:25:20;;;;;;;;;3.00;3.00;;;;;-144.77;100.00;61770.03;4998309;28;8738;-83
2021/07/05 01:27:46;;;;;;;;;6.00;5.00;;;;;-144.77;100.00;61770.03;4995605;28;8766;-84
2021/07/05 01:30:14;;;;;;;;;1.75;1.75;;;;;-144.77;100.00;61770.03;4996026;28;8773;-84
2021/07/05 01:32:40;;;;;;;;;5.00;3.00;;;;;-144.77;100.00;61770.03;4996234;28;8790;-84
2021/07/05 01:35:08;;;;;;;;;3.50;3.00;;;;;-144.77;100.00;61770.03;4995270;28;8889;-84
2021/07/05 01:37:33;;;;;;;;;5.00;4.00;;;;;-144.77;100.00;61770.03;4996290;28;8832;-84
2021/07/05 01:40:00;;;;;;;;;5.00;3.75;;;;;-144.77;100.00;61770.03;4979260;28;8889;-83
2021/07/05 01:42:25;;;;;;;;;5.00;4.50;;;;;-144.77;100.00;61770.03;4995405;28;8828;-83
2021/07/05 01:44:51;;;;;;;;;3.50;3.50;;;;;-144.77;100.00;61770.03;4995884;28;8825;-83
2021/07/05 01:47:16;;;;;;;;;8.00;2.75;;;;;-144.77;100.00;61770.03;4996486;28;8876;-83
2021/07/05 01:49:45;;;;;;;;;4.75;3.50;;;;;-144.77;100.00;61770.03;4995732;28;9588;-83
2021/07/05 01:52:12;;;;;;;;;4.00;2.75;;;;;-144.77;100.00;61770.03;4998602;28;8758;-83
2021/07/05 01:54:38;;;;;;;;;4.75;2.00;;;;;-144.77;100.00;61770.03;4998953;28;8778;-84
2021/07/05 01:57:05;;;;;;;;;2.75;2.75;;;;;-144.77;100.00;61770.03;4998298;28;8825;-83
2021/07/05 01:59:31;;;;;;;;;7.50;3.00;;;;;-144.77;100.00;61770.03;4999743;28;8825;-84
2021/07/05 02:01:56;;;;;;;;;6.25;3.00;;;;;-144.77;100.00;61770.03;4998975;28;8862;-84
2021/07/05 02:04:25;;;;;;;;;3.50;2.00;;;;;-144.77;100.00;61770.03;5012459;28;8815;-84
2021/07/05 02:06:51;;;;;;;;;3.25;3.25;;;;;-144.77;100.00;61770.03;5005271;28;8796;-84
2021/07/05 02:09:16;;;;;;;;;3.00;3.00;;;;;-144.77;100.00;61770.03;5004454;28;8830;-83
2021/07/05 02:11:43;;;;;;;;;5.25;3.00;;;;;-144.77;100.00;61770.03;4980983;28;9699;-83
2021/07/05 02:14:08;;;;;;;;;3.50;3.25;;;;;-144.77;100.00;61770.03;4991551;28;8833;-84
2021/07/05 02:16:35;;;;;;;;;6.50;3.00;;;;;-144.77;100.00;61770.03;4997996;28;8937;-84
2021/07/05 02:19:01;;;;;;;;;5.00;3.25;;;;;-144.77;100.00;61770.03;4999422;28;8803;-84
2021/07/05 02:21:27;;;;;;;;;3.00;3.00;;;;;-144.77;100.00;61770.03;5007217;28;8807;-84
2021/07/05 02:23:52;;;;;;;;;5.50;4.00;;;;;-144.77;100.00;61770.03;5000281;28;8807;-84
2021/07/05 02:26:18;;;;;;;;;3.75;2.25;;;;;-144.77;100.00;61770.03;4998433;28;8839;-84
2021/07/05 02:28:43;;;;;;;;;3.00;3.00;;;;;-144.77;100.00;61770.03;4996949;28;8819;-84
2021/07/05 02:31:09;;;;;;;;;4.25;3.00;;;;;-144.77;100.00;61770.03;5004905;28;8837;-85
2021/07/05 02:33:35;;;;;;;;;3.00;3.00;;;;;-144.77;100.00;61770.03;5002020;28;8838;-85
2021/07/05 02:36:06;;;;;;;;;3.00;3.00;;;;;-144.77;100.00;61770.03;4998246;28;8826;-85
2021/07/05 02:38:34;;;;;;;;;3.00;3.00;;;;;-144.77;100.00;61770.03;4987849;28;8795;-85
2021/07/05 02:41:00;;;;;;;;;4.50;2.00;;;;;-144.77;100.00;61770.03;4998312;28;9803;-85
2021/07/05 02:43:26;;;;;;;;;2.75;2.75;;;;;-144.77;100.00;61770.03;4997930;28;8816;-85
2021/07/05 02:45:55;;;;;;;;;3.00;3.00;;;;;-144.77;100.00;61770.03;5011027;28;8810;-86
2021/07/05 02:48:23;;;;;;;;;3.50;3.50;;;;;-144.77;100.00;61770.03;4994519;28;8824;-86
2021/07/05 02:50:54;;;;;;;;;3.00;2.75;;;;;-144.77;100.00;61770.03;4997935;28;8787;-86
2021/07/05 02:53:20;;;;;;;;;5.00;4.00;;;;;-144.77;100.00;61770.03;5009879;28;8790;-87
2021/07/05 02:55:46;;;;;;;;;5.00;4.00;;;;;-144.77;100.00;61770.03;4994437;28;8831;-86
2021/07/05 02:58:12;;;;;;;;;3.50;3.00;;;;;-144.77;100.00;61770.03;5012426;28;8831;-87
2021/07/05 03:00:44;;;;;;;;;4.00;3.00;;;;;-144.77;100.00;61770.03;4997877;28;8814;-87
2021/07/05 03:03:10;;;;;;;;;6.25;3.00;;;;;-144.77;100.00;61770.03;4997360;28;9689;-88
2021/07/05 03:05:35;;;;;;;;;4.50;3.00;;;;;-144.77;100.00;61770.03;4997077;28;8884;-87
2021/07/05 03:08:01;;;;;;;;;3.50;2.50;;;;;-144.77;100.00;61770.03;4997778;28;8941;-87
2021/07/05 03:10:33;;;;;;;;;2.75;2.75;;;;;-144.77;100.00;61770.03;4998773;28;8833;-87
2021/07/05 03:13:01;;;;;;;;;5.25;3.75;;;;;-144.77;100.00;61770.03;4995537;28;10275;-87
2021/07/05 03:15:27;;;;;;;;;3.00;2.50;;;;;-144.77;100.00;61770.03;5001325;28;8834;-85
2021/07/05 03:17:53;;;;;;;;;3.25;3.25;;;;;-144.77;100.00;61770.03;4997578;28;8821;-85
2021/07/05 03:20:21;;;;;;;;;2.50;2.50;;;;;-144.77;100.00;61770.03;4995131;28;8815;-84
2021/07/05 03:22:49;;;;;;;;;5.25;3.00;;;;;-144.77;100.00;61770.03;4997521;28;8795;-84
2021/07/05 03:25:17;;;;;;;;;3.00;3.00;;;;;-144.77;100.00;61770.03;4995900;28;8860;-84
2021/07/05 03:27:44;;;;;;;;;4.00;4.00;;;;;-144.77;100.00;61770.03;4997180;28;8818;-84
2021/07/05 03:30:11;;;;;;;;;4.25;3.00;;;;;-144.77;100.00;61770.03;4999659;28;8824;-83
2021/07/05 03:32:38;;;;;;;;;5.00;3.25;;;;;-144.77;100.00;61770.03;5008232;28;8887;-83
2021/07/05 03:35:07;;;;;;;;;4.00;4.00;;;;;-144.77;100.00;61770.03;4997455;28;8767;-83
2021/07/05 03:37:32;;;;;;;;;3.50;3.50;;;;;-144.77;100.00;61770.03;5006301;28;8828;-83
2021/07/05 03:39:58;;;;;;;;;8.00;3.00;;;;;-144.77;100.00;61770.03;5000885;28;8904;-84
2021/07/05 03:42:23;;;;;;;;;3.00;3.00;;;;;-144.77;100.00;61770.03;5005899;28;8840;-83
2021/07/05 03:44:49;;;;;;;;;3.25;2.50;;;;;-144.77;100.00;61770.03;4998508;28;8826;-84
2021/07/05 03:47:14;;;;;;;;;5.25;4.50;;;;;-144.77;100.00;61770.03;4998250;28;8944;-84
2021/07/05 03:49:40;;;;;;;;;3.00;3.00;;;;;-144.77;100.00;61770.03;4997012;28;8837;-83
2021/07/05 03:52:05;;;;;;;;;6.50;5.00;;;;;-144.77;100.00;61770.03;4997115;28;8847;-83
2021/07/05 03:54:31;;;;;;;;;4.00;4.00;;;;;-144.77;100.00;61770.03;4997898;28;8819;-84
2021/07/05 03:56:56;;;;;;;;;5.00;4.75;;;;;-144.77;100.00;61770.03;5004965;28;8810;-83
2021/07/05 03:59:24;;;;;;;;;3.50;3.50;;;;;-144.77;100.00;61770.03;4994919;28;9574;-83
2021/07/05 04:01:49;;;;;;;;;4.00;3.25;;;;;-144.77;100.00;61770.03;4997095;28;8818;-83
2021/07/05 04:04:15;;;;;;;;;5.00;5.00;;;;;-144.77;100.00;61770.03;4995735;28;8894;-83
2021/07/05 04:06:40;;;;;;;;;6.00;5.75;;;;;-144.77;100.00;61770.03;4995409;28;8827;-84
2021/07/05 04:09:06;;;;;;;;;6.00;3.50;;;;;-144.77;100.00;61770.03;5005519;28;9608;-84
2021/07/05 04:11:32;;;;;;;;;5.00;4.00;;;;;-144.77;100.00;61770.03;4997613;28;8908;-84
2021/07/05 04:13:58;;;;;;;;;4.25;3.00;;;;;-144.77;100.00;61770.03;4994804;28;8834;-84
2021/07/05 04:16:26;;;;;;;;;7.25;6.00;;;;;-144.77;100.00;61770.03;4996588;28;8869;-84
2021/07/05 04:18:52;;;;;;;;;5.00;4.00;;;;;-144.77;100.00;61770.03;4996820;28;8847;-85
2021/07/05 04:21:20;;;;;;;;;3.75;3.75;;;;;-144.77;100.00;61770.03;4998139;28;8865;-84
2021/07/05 04:23:46;;;;;;;;;3.00;3.00;;;;;-144.77;100.00;61770.03;4996841;28;8791;-84
2021/07/05 04:26:12;;;;;;;;;2.25;2.25;;;;;-144.77;100.00;61770.03;4996360;28;9759;-84
2021/07/05 04:28:38;;;;;;;;;3.00;3.00;;;;;-144.77;100.00;61770.03;4991997;28;8833;-84
2021/07/05 04:31:03;;;;;;;;;2.00;2.00;;;;;-144.77;100.00;61770.03;4997162;28;8841;-84
2021/07/05 04:33:29;;;;;;;;;2.75;2.50;;;;;-144.77;100.00;61770.03;4996575;28;8869;-84
2021/07/05 04:35:54;;;;;;;;;4.00;3.00;;;;;-144.77;100.00;61770.03;4995145;28;8841;-84
2021/07/05 04:38:20;;;;;;;;;3.00;3.00;;;;;-144.77;100.00;61770.03;4998775;28;8835;-84
2021/07/05 04:40:46;;;;;;;;;5.00;3.75;;;;;-144.77;100.00;61770.03;4996327;28;8828;-84
2021/07/05 04:43:12;;;;;;;;;3.00;3.00;;;;;-144.77;100.00;61770.03;4999173;28;8829;-84
2021/07/05 04:45:38;;;;;;;;;5.00;4.00;;;;;-144.77;100.00;61770.03;4996468;28;8815;-85
2021/07/05 04:48:06;;;;;;;;;5.00;4.00;;;;;-144.77;100.00;61770.03;4997302;28;8822;-85
2021/07/05 04:50:32;;;;;;;;;2.00;2.00;;;;;-144.77;100.00;61770.03;4997668;28;8877;-85
2021/07/05 04:52:59;;;;;;;;;3.25;2.50;;;;;-144.77;100.00;61770.03;4996489;28;8791;-85
2021/07/05 04:55:25;;;;;;;;;3.75;3.75;;;;;-144.77;100.00;61770.03;4996692;28;8775;-85
2021/07/05 04:57:52;;;;;;;;;3.50;3.00;;;;;-144.77;100.00;61770.03;5000528;28;8767;-85
2021/07/05 05:00:28;;;;;;;;;6.00;6.00;;;;;-144.77;100.00;61770.03;4999527;28;8833;-85
2021/07/05 05:02:54;;;;;;;;;5.00;3.25;;;;;-144.77;100.00;61770.03;5001574;28;8834;-85
2021/07/05 05:05:21;;;;;;;;;1.75;0.75;;;;;-144.77;100.00;61770.03;4995719;28;8905;-85
2021/07/05 05:07:47;;;;;;;;;3.75;3.75;;;;;-144.77;100.00;61770.03;5002134;28;8768;-85
2021/07/05 05:10:13;;;;;;;;;2.00;1.25;;;;;-144.77;100.00;61770.03;5001140;28;8857;-85
2021/07/05 05:12:39;;;;;;;;;1.25;1.25;;;;;-144.77;100.00;61770.03;4995772;28;8802;-85
2021/07/05 05:15:07;;;;;;;;;3.00;1.00;;;;;-144.77;100.00;61770.03;4995885;28;8808;-85
2021/07/05 05:17:33;;;;;;;;;2.00;2.00;;;;;-144.77;100.00;61770.03;4991425;28;8922;-85
2021/07/05 05:19:59;;;;;;;;;1.50;1.00;;;;;-144.77;100.00;61770.03;4975395;28;8851;-85
2021/07/05 05:22:25;;;;;;;;;2.00;2.00;;;;;-144.77;100.00;61770.03;4997844;28;8825;-86
2021/07/05 05:24:50;;;;;;;;;1.50;1.00;;;;;-144.77;100.00;61770.03;4959443;28;8856;-84
2021/07/05 05:27:16;;;;;;;;;1.00;1.00;;;;;-144.77;100.00;61770.03;4978127;28;9599;-84
2021/07/05 05:29:42;;;;;;;;;1.75;1.75;;;;;-144.77;100.00;61770.03;4999024;28;8832;-87
2021/07/05 05:32:08;;;;;;;;;0.50;0.50;;;;;-144.77;100.00;61770.03;4999362;28;8813;-86
2021/07/05 05:34:35;;;;;;;;;1.00;1.00;;;;;-144.77;100.00;61770.03;4999544;28;8786;-86
2021/07/05 05:37:02;;;;;;;;;2.00;2.00;;;;;-144.77;100.00;61770.03;4999198;28;8778;-85
2021/07/05 05:39:27;;;;;;;;;1.25;1.25;;;;;-144.77;100.00;61770.03;5010081;28;8900;-84
2021/07/05 05:41:53;;;;;;;;;2.25;2.00;;;;;-144.77;100.00;61770.03;4998893;28;8832;-86
2021/07/05 05:44:18;;;;;;;;;2.00;2.00;;;;;-144.77;100.00;61770.03;5009257;28;8809;-85
2021/07/05 05:46:44;;;;;;;;;2.00;2.00;;;;;-144.77;100.00;61770.03;4998911;28;8888;-86
2021/07/05 05:49:09;;;;;;;;;3.00;2.00;;;;;-144.77;100.00;61770.03;4999242;28;8810;-87
2021/07/05 05:51:37;;;;;;;;;4.00;2.25;;;;;-144.77;100.00;61770.03;4999052;28;9561;-86
2021/07/05 05:54:04;;;;;;;;;2.50;1.75;;;;;-144.77;100.00;61770.03;4999385;28;8774;-87
2021/07/05 05:56:32;;;;;;;;;2.25;2.25;;;;;-144.77;100.00;61770.03;5002578;28;8786;-86
2021/07/05 05:59:04;;;;;;;;;4.00;3.00;;;;;-144.77;100.00;61770.03;5002177;28;8847;-87
2021/07/05 06:01:31;;;;;;;;;1.25;1.25;;;;;-144.77;100.00;61770.03;4998857;28;8825;-87
2021/07/05 06:03:57;;;;;;;;;2.00;2.00;;;;;-144.77;100.00;61770.03;4997540;28;8880;-88
2021/07/05 06:06:22;;;;;;;;;5.00;4.00;;;;;-144.77;100.00;61770.03;4978145;28;8922;-88
2021/07/05 06:08:48;;;;;;;;;4.00;3.00;;;;;-144.77;100.00;61770.03;4994368;28;8832;-88
2021/07/05 06:11:14;;;;;;;;;3.50;2.75;;;;;-144.77;100.00;61770.03;5002202;28;8808;-84
2021/07/05 06:13:40;;;;;;;;;4.00;2.75;;;;;-144.77;100.00;61770.03;4995343;28;8815;-84
2021/07/05 06:16:06;;;;;;;;;3.00;2.00;;;;;-144.77;100.00;61770.03;5005761;28;8869;-88
2021/07/05 06:18:32;;;;;;;;;3.00;3.00;;;;;-144.77;100.00;61770.03;4998648;28;8747;-88
2021/07/05 06:20:58;;;;;;;;;2.00;2.00;;;;;-144.77;100.00;61770.03;5003619;28;9568;-88
2021/07/05 06:23:28;;;;;;;;;3.25;3.00;;;;;-144.77;100.00;61770.03;5003676;28;8803;-88
2021/07/05 06:25:58;;;;;;;;;3.50;2.00;;;;;-144.77;100.00;61770.03;4998603;28;9768;-89
2021/07/05 06:28:27;;;;;;;;;3.00;3.00;;;;;-144.77;100.00;61770.03;4998416;28;8833;-88
2021/07/05 06:30:53;;;;;;;;;2.00;1.50;;;;;-144.77;100.00;61770.03;4998620;28;8795;-89
2021/07/05 06:33:20;;;;;;;;;2.00;2.00;;;;;-144.77;100.00;61770.03;4997014;28;8841;-88
2021/07/05 06:35:47;;;;;;;;;2.00;2.00;;;;;-144.77;100.00;61770.03;4998348;28;8787;-88
2021/07/05 06:38:14;;;;;;;;;2.00;2.00;;;;;-144.77;100.00;61770.03;4998269;28;8933;-89
2021/07/05 06:40:40;;;;;;;;;2.00;2.00;;;;;-144.77;100.00;61770.03;4998328;28;8815;-88
2021/07/05 06:43:06;;;;;;;;;2.75;2.00;;;;;-144.77;100.00;61770.03;4998173;28;10077;-88
2021/07/05 06:45:32;;;;;;;;;2.00;2.00;;;;;-144.77;100.00;61770.03;4998459;28;8917;-89
2021/07/05 06:47:58;;;;;;;;;2.50;2.00;;;;;-144.77;100.00;61770.03;4998115;28;8822;-88
2021/07/05 06:50:24;;;;;;;;;2.00;2.00;;;;;-144.77;100.00;61770.03;4998336;28;8819;-89
2021/07/05 06:52:50;;;;;;;;;2.75;2.00;;;;;-144.77;100.00;61770.03;4998188;28;8909;-89
2021/07/05 06:55:16;;;;;;;;;2.50;2.00;;;;;-144.77;100.00;61770.03;4998189;28;8803;-89
2021/07/05 06:57:41;;;;;;;;;3.00;3.00;;;;;-144.77;100.00;61770.03;4997965;28;8878;-89
2021/07/05 07:00:11;;;;;;;;;4.00;2.75;;;;;-144.77;100.00;61770.03;4997559;28;8827;-88
2021/07/05 07:02:38;;;;;;;;;3.00;3.00;;;;;-144.77;100.00;61770.03;4997337;28;8881;-88
2021/07/05 07:05:07;;;;;;;;;2.50;2.00;;;;;-144.77;100.00;61770.03;4998364;28;8802;-89
2021/07/05 07:07:33;;;;;;;;;3.00;3.00;;;;;-144.77;100.00;61770.03;4997789;28;8842;-89
2021/07/05 07:09:59;;;;;;;;;1.25;1.25;;;;;-144.77;100.00;61770.03;4998057;28;8838;-88
2021/07/05 07:12:24;;;;;;;;;2.25;1.50;;;;;-144.77;100.00;61770.03;4984129;28;8801;-89
2021/07/05 07:14:50;;;;;;;;;4.00;2.25;;;;;-144.77;100.00;61770.03;4997901;28;8831;-89
2021/07/05 07:19:52;;;;;;;;;1.50;1.50;;;;;-144.77;100.00;61770.03;4997822;28;8806;-89
2021/07/05 07:22:19;;;;;;;;;1.25;1.25;;;;;-144.77;100.00;61770.03;5008733;28;8840;-89
2021/07/05 07:24:45;;;;;;;;;3.00;1.75;;;;;-144.77;100.00;61770.03;4997828;28;8798;-88
2021/07/05 07:27:10;;;;;;;;;1.75;1.75;;;;;-144.77;100.00;61770.03;4997212;28;8856;-89
2021/07/05 07:29:36;;;;;;;;;0.50;0.50;;;;;-144.77;100.00;61770.03;4976945;28;8855;-89
2021/07/05 07:32:02;;;;;;;;;1.75;1.50;;;;;-144.77;100.00;61770.03;4989690;28;8839;-89
2021/07/05 07:34:27;;;;;;;;;1.50;1.50;;;;;-144.77;100.00;61770.03;4989264;28;9668;-88
2021/07/05 07:36:55;;;;;;;;;1.25;1.25;;;;;-144.77;100.00;61770.03;4997358;28;8951;-89
2021/07/05 07:39:26;;;;;;;;;1.25;1.00;;;;;-144.77;100.00;61770.03;4997671;28;8810;-89
2021/07/05 07:41:51;;;;;;;;;1.50;1.00;;;;;-144.77;100.00;61770.03;4997247;28;8801;-89
2021/07/05 07:44:17;;;;;;;;;1.25;1.25;;;;;-144.77;100.00;61770.03;4997559;28;8818;-89
2021/07/05 07:46:42;;;;;;;;;1.00;1.00;;;;;-144.77;100.00;61770.03;4997347;28;8825;-88
2021/07/05 07:49:08;;;;;;;;;1.00;1.00;;;;;-144.77;100.00;61770.03;4996457;28;8912;-89
2021/07/05 07:51:33;;;;;;;;;2.00;2.00;;;;;-144.77;100.00;61770.03;4997127;28;8830;-89
2021/07/05 07:53:59;;;;;;;;;1.00;1.00;;;;;-144.77;100.00;61770.03;4997500;28;8959;-89
2021/07/05 07:56:26;;;;;;;;;1.00;0.75;;;;;-144.77;100.00;61770.03;4996788;28;8912;-89
2021/07/05 07:58:52;;;;;;;;;1.75;0.75;;;;;-144.77;100.00;61770.03;4997192;28;8893;-89
2021/07/05 08:01:17;;;;;;;;;2.00;2.00;;;;;-144.77;100.00;61770.03;4997003;28;8830;-89
2021/07/05 08:03:43;;;;;;;;;2.00;1.50;;;;;-144.77;100.00;61770.03;4979704;28;9597;-89
2021/07/05 08:06:09;;;;;;;;;1.50;0.75;;;;;-144.77;100.00;61770.03;4979388;28;8822;-90
2021/07/05 08:08:34;;;;;;;;;0.75;0.75;;;;;-144.77;100.00;61770.03;4996850;28;8935;-90
2021/07/05 08:11:00;;;;;;;;;3.50;2.50;;;;;-144.77;100.00;61770.03;4996461;28;8826;-90
2021/07/05 08:13:26;;;;;;;;;1.75;1.75;;;;;-144.77;100.00;61770.03;4996803;28;8833;-90
2021/07/05 08:15:53;;;;;;;;;1.75;1.75;;;;;-144.77;100.00;61770.03;4996708;28;8969;-90
2021/07/05 08:18:19;;;;;;;;;2.00;0.00;;;;;-144.77;100.00;61770.03;4997209;28;8814;-91
2021/07/05 08:20:45;;;;;;;;;4.00;2.00;;;;;-144.77;100.00;61770.03;5000006;28;8799;-91
2021/07/05 08:23:11;;;;;;;;;1.75;1.75;;;;;-144.77;100.00;61770.03;5005542;28;8802;-90
2021/07/05 08:25:36;;;;;;;;;2.00;2.00;;;;;-144.77;100.00;61770.03;4996574;28;8839;-90
2021/07/05 08:28:02;;;;;;;;;2.50;2.00;;;;;-144.77;100.00;61770.03;4996882;28;8841;-91
2021/07/05 08:30:28;;;;;;;;;2.50;2.00;;;;;-144.77;100.00;61770.03;4996831;28;8900;-91
2021/07/05 08:32:54;;;;;;;;;3.00;3.00;;;;;-144.77;100.00;61770.03;4996945;28;8822;-91
2021/07/05 08:35:21;;;;;;;;;3.00;3.00;;;;;-144.77;100.00;61770.03;4995495;28;8853;-91
2021/07/05 08:37:49;;;;;;;;;3.00;3.00;;;;;-144.77;100.00;61770.03;4996932;28;8896;-91
2021/07/05 08:40:15;;;;;;;;;4.75;3.50;;;;;-144.77;100.00;61770.03;4996503;28;8829;-91
2021/07/05 08:42:43;;;;;;;;;3.25;3.25;;;;;-144.77;100.00;61770.03;4996745;28;8813;-91
2021/07/05 08:45:09;;;;;;;;;5.00;4.25;;;;;-144.77;100.00;61770.03;4996475;28;8786;-91
2021/07/05 08:47:37;;;;;;;;;4.50;3.25;;;;;-144.77;100.00;61770.03;4996690;28;9679;-91
2021/07/05 08:50:08;;;;;;;;;3.25;3.25;;;;;-144.77;100.00;61770.03;4996548;28;8778;-91
2021/07/05 08:52:35;;;;;;;;;4.50;4.00;;;;;-144.77;100.00;61770.03;4996545;28;8845;-90
2021/07/05 08:55:02;;;;;;;;;4.50;3.25;;;;;-144.77;100.00;61770.03;4996574;28;8813;-89
2021/07/05 08:57:31;;;;;;;;;3.00;3.00;;;;;-144.77;100.00;61770.03;4996244;28;8817;-89
2021/07/05 08:59:57;;;;;;;;;4.00;3.00;;;;;-144.77;100.00;61770.03;4998260;28;8778;-90
2021/07/05 09:02:23;;;;;;;;;3.75;3.75;;;;;-144.77;100.00;61770.03;4980264;28;8996;-90
2021/07/05 09:04:50;;;;;;;;;2.50;2.50;;;;;-144.77;100.00;61770.03;4995447;28;8816;-90
2021/07/05 09:07:16;;;;;;;;;3.50;3.50;;;;;-144.77;100.00;61770.03;4980292;28;8897;-91
2021/07/05 09:10:00;;;;;;;;;3.25;3.00;;;;;-144.77;100.00;61770.03;4979183;28;8812;-91
2021/07/05 09:12:27;;;;;;;;;4.00;4.00;;;;;-144.77;100.00;61770.03;4995346;28;8790;-91
2021/07/05 09:15:33;;;;;;;;;4.00;4.00;;;;;-144.77;100.00;61770.03;4982441;28;8785;-90
2021/07/05 09:17:59;;;;;;;;;4.75;3.00;;;;;-144.77;100.00;61770.03;4942735;28;8754;-89
2021/07/05 09:20:24;;;;;;;;;3.00;3.00;;;;;-144.77;100.00;61770.03;4999494;28;8806;-91
2021/07/05 09:23:13;;;;;;;;;2.75;2.75;;;;;-144.77;100.00;61770.03;5011284;28;9553;-90
2021/07/05 09:25:45;;;;;;;;;4.50;3.50;;;;;-144.77;100.00;61770.03;4999241;28;8888;-90
2021/07/05 09:28:11;;;;;;;;;3.75;3.75;;;;;-144.77;100.00;61770.03;4999566;28;8829;-91
2021/07/05 09:30:46;;;;;;;;;3.00;3.00;;;;;-144.77;100.00;61770.03;4999312;28;8825;-91
2021/07/05 09:33:16;;;;;;;;;1.00;1.00;;;;;-144.77;100.00;61770.03;4999470;28;8810;-90
2021/07/05 09:35:42;;;;;;;;;2.00;2.00;;;;;-144.77;100.00;61770.03;4999648;28;8782;-91
2021/07/05 09:38:07;;;;;;;;;1.25;1.25;;;;;-144.77;100.00;61770.03;4999468;28;8762;-90
2021/07/05 09:40:33;;;;;;;;;2.25;2.00;;;;;-144.77;100.00;61770.03;4999334;28;9525;-90
2021/07/05 09:42:58;;;;;;;;;3.75;3.00;;;;;-144.77;100.00;61770.03;4999211;28;9640;-90
2021/07/05 09:45:33;;;;;;;;;2.50;2.00;;;;;-144.77;100.00;61770.03;4999400;28;8904;-90
2021/07/05 09:48:18;;;;;;;;;1.50;1.50;;;;;-144.77;100.00;61770.03;4999192;28;8837;-90
2021/07/05 09:51:02;;;;;;;;;2.00;2.00;;;;;-144.77;100.00;61770.03;4999287;28;8778;-91
2021/07/05 09:53:30;;;;;;;;;2.00;2.00;;;;;-144.77;100.00;61770.03;4986953;28;8746;-90
2021/07/05 09:56:17;;;;;;;;;4.00;2.75;;;;;-144.77;100.00;61770.03;4999028;28;8794;-90
2021/07/05 09:58:43;;;;;;;;;3.50;2.50;;;;;-144.77;100.00;61770.03;4999104;28;8870;-90
2021/07/05 10:01:09;;;;;;;;;2.00;1.00;;;;;-144.77;100.00;61770.03;4997243;28;8884;-89
2021/07/05 10:03:39;;;;;;;;;3.00;3.00;;;;;-144.77;100.00;61770.03;4999227;28;8892;-90
2021/07/05 10:06:21;;;;;;;;;1.25;1.25;;;;;-144.77;100.00;61770.03;4998992;28;8797;-90
2021/07/05 10:08:47;;;;;;;;;1.00;1.00;;;;;-144.77;100.00;61770.03;4998744;28;8746;-89
2021/07/05 10:11:15;;;;;;;;;2.00;2.00;;;;;-144.77;100.00;61770.03;4992173;28;8796;-89
2021/07/05 10:13:41;;;;;;;;;1.00;1.00;;;;;-144.77;100.00;61770.03;4991848;28;8802;-89
2021/07/05 10:16:13;;;;;;;;;1.25;1.25;;;;;-144.77;100.00;61770.03;4981236;28;8814;-89
2021/07/05 10:18:40;;;;;;;;;1.50;1.50;;;;;-144.77;100.00;61770.03;4998940;28;8806;-88
2021/07/05 10:21:06;;;;;;;;;2.00;2.00;;;;;-144.77;100.00;61770.03;5004780;28;9705;-88
2021/07/05 10:23:34;;;;;;;;;1.75;1.75;;;;;-144.77;100.00;61770.03;5004100;28;8813;-88
2021/07/05 10:25:59;;;;;;;;;1.50;1.00;;;;;-144.77;100.00;61770.03;4981064;28;8840;-88
2021/07/05 10:28:25;;;;;;;;;1.50;0.75;;;;;-144.77;100.00;61770.03;4998429;28;8833;-88
2021/07/05 10:30:52;;;;;;;;;1.00;1.00;;;;;-144.77;100.00;61770.03;4998825;28;8802;-88
2021/07/05 10:33:19;;;;;;;;;1.00;1.00;;;;;-144.77;100.00;61770.03;4998553;28;8810;-88
2021/07/05 10:35:46;;;;;;;;;2.00;1.00;;;;;-144.77;100.00;61770.03;4998785;28;8828;-88
2021/07/05 10:38:22;;;;;;;;;1.00;1.00;;;;;-144.77;100.00;61770.03;4998508;28;8758;-88
2021/07/05 10:40:51;;;;;;;;;2.00;2.00;;;;;-144.77;100.00;61770.03;4998414;28;8789;-87
2021/07/05 10:43:39;;;;;;;;;1.00;1.00;;;;;-144.77;100.00;61770.03;4998223;28;8817;-87
2021/07/05 10:46:05;;;;;;;;;2.00;1.00;;;;;-144.77;100.00;61770.03;4977427;28;8828;-86
2021/07/05 10:48:40;;;;;;;;;1.00;1.00;;;;;-144.77;100.00;61770.03;4980624;28;8861;-87
2021/07/05 10:51:07;;;;;;;;;2.00;1.00;;;;;-144.77;100.00;61770.03;4979332;28;8815;-87
2021/07/05 10:53:32;;;;;;;;;2.75;2.75;;;;;-144.77;100.00;61770.03;4998440;28;8809;-86
2021/07/05 10:56:00;;;;;;;;;6.00;4.00;;;;;-144.77;100.00;61770.03;4997912;28;8851;-86
2021/07/05 10:58:28;;;;;;;;;2.00;2.00;;;;;-144.77;100.00;61770.03;4998167;28;8896;-87
2021/07/05 11:00:59;;;;;;;;;1.00;1.00;;;;;-144.77;100.00;61770.03;4980559;28;8825;-86
2021/07/05 11:03:37;;;;;;;;;2.00;1.00;;;;;-144.77;100.00;61770.03;4998209;28;8802;-86
2021/07/05 11:06:11;;;;;;;;;1.75;1.00;;;;;-144.77;100.00;61770.03;4997966;28;8813;-86
2021/07/05 11:08:44;;;;;;;;;2.50;2.00;;;;;-144.77;100.00;61770.03;4997992;28;8833;-86
2021/07/05 11:11:24;;;;;;;;;2.50;1.50;;;;;-144.77;100.00;61770.03;4992494;28;8804;-86
2021/07/05 11:14:15;;;;;;;;;2.00;2.00;;;;;-144.77;100.00;61770.03;4992168;28;8810;-86
2021/07/05 11:17:25;;;;;;;;;1.00;1.00;;;;;-144.77;100.00;61770.03;4980409;28;8833;-86
2021/07/05 11:20:11;;;;;;;;;1.25;1.25;;;;;-144.77;100.00;61770.03;4988964;28;8852;-85